LEMH/MAH METAR and TAF weather

Enter ICAO airport designator
Station Type Date Time Source
LEMH METAR 2021/03/03 01:30 UTC NOAA

LEMH 030130Z AUTO 06007KT 9999 BKN028/// 12/11 Q1029


Station Type Date Time Source
LEMH Decoded METAR 2021/03/03 01:30 UTC NOAA

Menorca / Mahon, Spain (LEMH) 39-52N 004-14E 82M
Mar 02, 2021 - 08:30 PM EST / 2021.03.03 0130 UTC
Wind: from the ENE (060 degrees) at 8 MPH (7 KT):0
Visibility: greater than 7 mile(s):0
Sky conditions: mostly cloudy
Temperature: 53 F (12 C)
Dew Point: 51 F (11 C)
Relative Humidity: 93%
Pressure (altimeter): 30.39 in. Hg (1029 hPa)
ob: LEMH 030130Z AUTO 06007KT 9999 BKN028/// 12/11 Q1029
cycle: 1

Station Type Date Time Source
LEMH TAF 2021/03/02 21:27 UTC NOAA

TAF LEMH 022000Z 0221/0321 08009KT 9999 SCT015 TX16/0312Z TN10/0306Z

Example: see airport list